sensor_id;sensor_type;location;lat;lon;timestamp;P1;durP1;ratioP1;P2;durP2;ratioP2
3924;SDS011;1977;52.274;10.518;2023-08-08T00:00:28;2.57;;;2.40;;
3924;SDS011;1977;52.274;10.518;2023-08-08T00:02:55;2.10;;;2.00;;
3924;SDS011;1977;52.274;10.518;2023-08-08T00:05:22;4.27;;;2.03;;
3924;SDS011;1977;52.274;10.518;2023-08-08T00:07:49;3.53;;;2.00;;
3924;SDS011;1977;52.274;10.518;2023-08-08T00:10:17;2.43;;;2.23;;
3924;SDS011;1977;52.274;10.518;2023-08-08T00:12:44;2.87;;;2.63;;
3924;SDS011;1977;52.274;10.518;2023-08-08T00:15:10;2.03;;;1.93;;
3924;SDS011;1977;52.274;10.518;2023-08-08T00:17:37;2.17;;;1.90;;
3924;SDS011;1977;52.274;10.518;2023-08-08T00:20:05;2.60;;;2.40;;
3924;SDS011;1977;52.274;10.518;2023-08-08T00:22:33;4.03;;;2.53;;
3924;SDS011;1977;52.274;10.518;2023-08-08T00:24:59;2.13;;;1.90;;
3924;SDS011;1977;52.274;10.518;2023-08-08T00:27:28;3.53;;;2.20;;
3924;SDS011;1977;52.274;10.518;2023-08-08T00:29:55;2.67;;;2.50;;
3924;SDS011;1977;52.274;10.518;2023-08-08T00:32:21;2.80;;;2.50;;
3924;SDS011;1977;52.274;10.518;2023-08-08T00:34:48;5.80;;;2.43;;
3924;SDS011;1977;52.274;10.518;2023-08-08T00:37:15;3.87;;;2.40;;
3924;SDS011;1977;52.274;10.518;2023-08-08T00:39:42;2.33;;;2.10;;
3924;SDS011;1977;52.274;10.518;2023-08-08T00:42:11;2.37;;;2.13;;
3924;SDS011;1977;52.274;10.518;2023-08-08T00:44:39;2.73;;;2.53;;
3924;SDS011;1977;52.274;10.518;2023-08-08T00:47:06;2.40;;;2.20;;
3924;SDS011;1977;52.274;10.518;2023-08-08T00:49:33;3.30;;;2.53;;
3924;SDS011;1977;52.274;10.518;2023-08-08T00:52:00;3.17;;;2.70;;
3924;SDS011;1977;52.274;10.518;2023-08-08T00:54:27;5.60;;;3.10;;
3924;SDS011;1977;52.274;10.518;2023-08-08T00:56:55;2.70;;;2.50;;
3924;SDS011;1977;52.274;10.518;2023-08-08T00:59:21;2.70;;;2.50;;
3924;SDS011;1977;52.274;10.518;2023-08-08T01:01:51;3.90;;;3.20;;
3924;SDS011;1977;52.274;10.518;2023-08-08T01:04:19;3.53;;;2.90;;
3924;SDS011;1977;52.274;10.518;2023-08-08T01:06:48;2.80;;;2.60;;
3924;SDS011;1977;52.274;10.518;2023-08-08T01:09:21;3.47;;;3.17;;
3924;SDS011;1977;52.274;10.518;2023-08-08T01:11:52;3.80;;;2.90;;
3924;SDS011;1977;52.274;10.518;2023-08-08T01:14:19;3.50;;;2.57;;
3924;SDS011;1977;52.274;10.518;2023-08-08T01:16:51;3.23;;;3.03;;
3924;SDS011;1977;52.274;10.518;2023-08-08T01:19:23;3.20;;;3.00;;
3924;SDS011;1977;52.274;10.518;2023-08-08T01:21:53;2.90;;;2.70;;
3924;SDS011;1977;52.274;10.518;2023-08-08T01:24:24;4.37;;;2.90;;
3924;SDS011;1977;52.274;10.518;2023-08-08T01:26:54;3.90;;;3.00;;
3924;SDS011;1977;52.274;10.518;2023-08-08T01:29:21;2.93;;;2.73;;
3924;SDS011;1977;52.274;10.518;2023-08-08T01:31:48;4.30;;;3.90;;
3924;SDS011;1977;52.274;10.518;2023-08-08T01:34:15;3.00;;;2.80;;
3924;SDS011;1977;52.274;10.518;2023-08-08T01:36:43;2.93;;;2.63;;
3924;SDS011;1977;52.274;10.518;2023-08-08T01:39:16;3.07;;;2.87;;
3924;SDS011;1977;52.274;10.518;2023-08-08T01:41:49;2.90;;;2.70;;
3924;SDS011;1977;52.274;10.518;2023-08-08T01:44:18;3.20;;;3.00;;
3924;SDS011;1977;52.274;10.518;2023-08-08T01:46:45;3.30;;;2.47;;
3924;SDS011;1977;52.274;10.518;2023-08-08T01:49:12;2.80;;;2.60;;
3924;SDS011;1977;52.274;10.518;2023-08-08T01:51:39;2.73;;;2.53;;
3924;SDS011;1977;52.274;10.518;2023-08-08T01:54:06;3.17;;;2.87;;
3924;SDS011;1977;52.274;10.518;2023-08-08T01:56:33;2.70;;;2.50;;
3924;SDS011;1977;52.274;10.518;2023-08-08T01:59:01;4.43;;;3.20;;
3924;SDS011;1977;52.274;10.518;2023-08-08T02:01:28;3.53;;;2.73;;
3924;SDS011;1977;52.274;10.518;2023-08-08T02:03:54;2.67;;;2.47;;
3924;SDS011;1977;52.274;10.518;2023-08-08T02:06:21;4.37;;;3.60;;
3924;SDS011;1977;52.274;10.518;2023-08-08T02:08:48;3.13;;;2.60;;
3924;SDS011;1977;52.274;10.518;2023-08-08T02:11:14;3.03;;;2.63;;
3924;SDS011;1977;52.274;10.518;2023-08-08T02:13:41;2.60;;;2.50;;
3924;SDS011;1977;52.274;10.518;2023-08-08T02:16:09;6.00;;;2.80;;
3924;SDS011;1977;52.274;10.518;2023-08-08T02:18:36;2.80;;;2.60;;
3924;SDS011;1977;52.274;10.518;2023-08-08T02:21:05;3.33;;;3.10;;
3924;SDS011;1977;52.274;10.518;2023-08-08T02:23:32;2.80;;;2.60;;
3924;SDS011;1977;52.274;10.518;2023-08-08T02:25:59;3.23;;;2.90;;
3924;SDS011;1977;52.274;10.518;2023-08-08T02:28:26;3.53;;;2.93;;
3924;SDS011;1977;52.274;10.518;2023-08-08T02:30:53;3.00;;;2.63;;
3924;SDS011;1977;52.274;10.518;2023-08-08T02:33:21;2.67;;;2.47;;
3924;SDS011;1977;52.274;10.518;2023-08-08T02:35:48;5.30;;;3.40;;
3924;SDS011;1977;52.274;10.518;2023-08-08T02:38:15;2.70;;;2.40;;
3924;SDS011;1977;52.274;10.518;2023-08-08T02:40:42;3.70;;;3.40;;
3924;SDS011;1977;52.274;10.518;2023-08-08T02:43:08;3.10;;;2.90;;
3924;SDS011;1977;52.274;10.518;2023-08-08T02:45:36;3.37;;;3.17;;
3924;SDS011;1977;52.274;10.518;2023-08-08T02:48:02;6.23;;;3.07;;
3924;SDS011;1977;52.274;10.518;2023-08-08T02:50:32;2.50;;;2.30;;
3924;SDS011;1977;52.274;10.518;2023-08-08T02:52:59;2.73;;;2.53;;
3924;SDS011;1977;52.274;10.518;2023-08-08T02:55:25;3.80;;;3.03;;
3924;SDS011;1977;52.274;10.518;2023-08-08T02:57:52;3.57;;;2.93;;
3924;SDS011;1977;52.274;10.518;2023-08-08T03:00:19;3.47;;;3.10;;
3924;SDS011;1977;52.274;10.518;2023-08-08T03:02:46;2.83;;;2.63;;
3924;SDS011;1977;52.274;10.518;2023-08-08T03:05:13;3.70;;;3.40;;
3924;SDS011;1977;52.274;10.518;2023-08-08T03:07:41;3.23;;;3.03;;
3924;SDS011;1977;52.274;10.518;2023-08-08T03:10:08;3.77;;;3.47;;
3924;SDS011;1977;52.274;10.518;2023-08-08T03:12:35;3.03;;;2.83;;
3924;SDS011;1977;52.274;10.518;2023-08-08T03:15:04;3.80;;;3.53;;
3924;SDS011;1977;52.274;10.518;2023-08-08T03:17:32;4.63;;;3.10;;
3924;SDS011;1977;52.274;10.518;2023-08-08T03:19:59;2.90;;;2.70;;
3924;SDS011;1977;52.274;10.518;2023-08-08T03:22:30;3.73;;;3.27;;
3924;SDS011;1977;52.274;10.518;2023-08-08T03:24:58;3.13;;;2.67;;
3924;SDS011;1977;52.274;10.518;2023-08-08T03:27:25;3.07;;;2.87;;
3924;SDS011;1977;52.274;10.518;2023-08-08T03:29:52;3.40;;;3.17;;
3924;SDS011;1977;52.274;10.518;2023-08-08T03:32:18;2.93;;;2.70;;
3924;SDS011;1977;52.274;10.518;2023-08-08T03:34:45;4.13;;;3.07;;
3924;SDS011;1977;52.274;10.518;2023-08-08T03:37:12;3.40;;;3.10;;
3924;SDS011;1977;52.274;10.518;2023-08-08T03:39:39;2.93;;;2.50;;
3924;SDS011;1977;52.274;10.518;2023-08-08T03:42:07;4.50;;;3.43;;
3924;SDS011;1977;52.274;10.518;2023-08-08T03:44:34;5.40;;;3.03;;
3924;SDS011;1977;52.274;10.518;2023-08-08T03:47:01;6.60;;;3.73;;
3924;SDS011;1977;52.274;10.518;2023-08-08T03:49:28;3.50;;;3.20;;
3924;SDS011;1977;52.274;10.518;2023-08-08T03:51:54;3.53;;;3.23;;
3924;SDS011;1977;52.274;10.518;2023-08-08T03:54:21;4.17;;;3.77;;
3924;SDS011;1977;52.274;10.518;2023-08-08T03:56:48;5.17;;;3.80;;
3924;SDS011;1977;52.274;10.518;2023-08-08T03:59:16;5.50;;;3.07;;
3924;SDS011;1977;52.274;10.518;2023-08-08T04:01:43;4.20;;;3.80;;
3924;SDS011;1977;52.274;10.518;2023-08-08T04:04:10;4.93;;;3.43;;
3924;SDS011;1977;52.274;10.518;2023-08-08T04:06:36;3.77;;;3.47;;
3924;SDS011;1977;52.274;10.518;2023-08-08T04:09:03;4.00;;;3.63;;
3924;SDS011;1977;52.274;10.518;2023-08-08T04:11:30;3.60;;;3.40;;
3924;SDS011;1977;52.274;10.518;2023-08-08T04:13:57;3.50;;;3.30;;
3924;SDS011;1977;52.274;10.518;2023-08-08T04:16:25;3.77;;;3.47;;
3924;SDS011;1977;52.274;10.518;2023-08-08T04:18:51;3.43;;;3.13;;
3924;SDS011;1977;52.274;10.518;2023-08-08T04:21:18;3.63;;;3.37;;
3924;SDS011;1977;52.274;10.518;2023-08-08T04:23:45;3.70;;;3.40;;
3924;SDS011;1977;52.274;10.518;2023-08-08T04:26:12;4.67;;;3.60;;
3924;SDS011;1977;52.274;10.518;2023-08-08T04:28:39;12.43;;;4.17;;
3924;SDS011;1977;52.274;10.518;2023-08-08T04:31:06;3.40;;;3.10;;
3924;SDS011;1977;52.274;10.518;2023-08-08T04:33:34;5.60;;;3.53;;
3924;SDS011;1977;52.274;10.518;2023-08-08T04:36:01;4.60;;;3.77;;
3924;SDS011;1977;52.274;10.518;2023-08-08T04:38:28;3.13;;;2.93;;
3924;SDS011;1977;52.274;10.518;2023-08-08T04:40:55;3.90;;;3.30;;
3924;SDS011;1977;52.274;10.518;2023-08-08T04:43:21;3.30;;;2.80;;
3924;SDS011;1977;52.274;10.518;2023-08-08T04:45:48;2.97;;;2.77;;
3924;SDS011;1977;52.274;10.518;2023-08-08T04:48:15;4.67;;;2.50;;
3924;SDS011;1977;52.274;10.518;2023-08-08T04:50:43;4.60;;;3.87;;
3924;SDS011;1977;52.274;10.518;2023-08-08T04:53:12;6.17;;;3.20;;
3924;SDS011;1977;52.274;10.518;2023-08-08T04:55:38;3.63;;;3.17;;
3924;SDS011;1977;52.274;10.518;2023-08-08T04:58:05;2.87;;;2.67;;
3924;SDS011;1977;52.274;10.518;2023-08-08T05:00:32;6.40;;;3.20;;
3924;SDS011;1977;52.274;10.518;2023-08-08T05:03:00;3.10;;;2.90;;
3924;SDS011;1977;52.274;10.518;2023-08-08T05:05:27;3.37;;;3.10;;
3924;SDS011;1977;52.274;10.518;2023-08-08T05:07:55;2.73;;;2.60;;
3924;SDS011;1977;52.274;10.518;2023-08-08T05:10:22;3.43;;;3.13;;
3924;SDS011;1977;52.274;10.518;2023-08-08T05:12:49;3.97;;;3.07;;
3924;SDS011;1977;52.274;10.518;2023-08-08T05:15:15;3.10;;;2.80;;
3924;SDS011;1977;52.274;10.518;2023-08-08T05:17:42;3.63;;;2.90;;
3924;SDS011;1977;52.274;10.518;2023-08-08T05:20:09;3.57;;;3.27;;
3924;SDS011;1977;52.274;10.518;2023-08-08T05:22:37;2.73;;;2.53;;
3924;SDS011;1977;52.274;10.518;2023-08-08T05:25:05;3.17;;;2.87;;
3924;SDS011;1977;52.274;10.518;2023-08-08T05:27:33;3.43;;;3.23;;
3924;SDS011;1977;52.274;10.518;2023-08-08T05:29:59;5.30;;;3.20;;
3924;SDS011;1977;52.274;10.518;2023-08-08T05:32:26;16.63;;;4.60;;
3924;SDS011;1977;52.274;10.518;2023-08-08T05:34:53;2.90;;;2.70;;
3924;SDS011;1977;52.274;10.518;2023-08-08T05:37:22;4.17;;;3.00;;
3924;SDS011;1977;52.274;10.518;2023-08-08T05:39:48;2.97;;;2.70;;
3924;SDS011;1977;52.274;10.518;2023-08-08T05:42:16;4.40;;;3.03;;
3924;SDS011;1977;52.274;10.518;2023-08-08T05:44:43;3.60;;;3.40;;
3924;SDS011;1977;52.274;10.518;2023-08-08T05:47:10;3.10;;;2.80;;
3924;SDS011;1977;52.274;10.518;2023-08-08T05:49:37;2.97;;;2.87;;
3924;SDS011;1977;52.274;10.518;2023-08-08T05:52:06;3.33;;;3.03;;
3924;SDS011;1977;52.274;10.518;2023-08-08T05:54:33;2.80;;;2.60;;
3924;SDS011;1977;52.274;10.518;2023-08-08T05:57:01;2.23;;;2.13;;
3924;SDS011;1977;52.274;10.518;2023-08-08T05:59:30;3.20;;;3.00;;
3924;SDS011;1977;52.274;10.518;2023-08-08T06:01:56;3.60;;;3.07;;
3924;SDS011;1977;52.274;10.518;2023-08-08T06:04:23;3.40;;;3.20;;
3924;SDS011;1977;52.274;10.518;2023-08-08T06:06:50;3.10;;;2.80;;
3924;SDS011;1977;52.274;10.518;2023-08-08T06:09:17;3.80;;;3.47;;
3924;SDS011;1977;52.274;10.518;2023-08-08T06:11:44;3.07;;;2.77;;
3924;SDS011;1977;52.274;10.518;2023-08-08T06:14:11;3.47;;;3.27;;
3924;SDS011;1977;52.274;10.518;2023-08-08T06:16:39;3.07;;;2.87;;
3924;SDS011;1977;52.274;10.518;2023-08-08T06:19:06;3.23;;;2.90;;
3924;SDS011;1977;52.274;10.518;2023-08-08T06:21:33;3.57;;;3.27;;
3924;SDS011;1977;52.274;10.518;2023-08-08T06:24:02;3.70;;;3.20;;
3924;SDS011;1977;52.274;10.518;2023-08-08T06:26:28;3.67;;;3.47;;
3924;SDS011;1977;52.274;10.518;2023-08-08T06:28:55;4.30;;;3.90;;
3924;SDS011;1977;52.274;10.518;2023-08-08T06:31:22;3.90;;;3.60;;
3924;SDS011;1977;52.274;10.518;2023-08-08T06:33:50;4.20;;;3.90;;
3924;SDS011;1977;52.274;10.518;2023-08-08T06:36:17;4.03;;;3.73;;
3924;SDS011;1977;52.274;10.518;2023-08-08T06:38:43;3.93;;;3.73;;
3924;SDS011;1977;52.274;10.518;2023-08-08T06:41:10;4.30;;;3.90;;
3924;SDS011;1977;52.274;10.518;2023-08-08T06:43:37;5.00;;;4.30;;
3924;SDS011;1977;52.274;10.518;2023-08-08T06:46:04;4.03;;;3.83;;
3924;SDS011;1977;52.274;10.518;2023-08-08T06:48:31;4.13;;;3.93;;
3924;SDS011;1977;52.274;10.518;2023-08-08T06:50:59;4.03;;;3.83;;
3924;SDS011;1977;52.274;10.518;2023-08-08T06:53:26;4.47;;;4.03;;
3924;SDS011;1977;52.274;10.518;2023-08-08T06:55:53;5.50;;;4.30;;
3924;SDS011;1977;52.274;10.518;2023-08-08T06:58:19;4.33;;;3.93;;
3924;SDS011;1977;52.274;10.518;2023-08-08T07:00:46;5.30;;;4.27;;
3924;SDS011;1977;52.274;10.518;2023-08-08T07:03:13;4.20;;;3.90;;
3924;SDS011;1977;52.274;10.518;2023-08-08T07:05:40;4.40;;;4.10;;
3924;SDS011;1977;52.274;10.518;2023-08-08T07:08:08;4.47;;;4.07;;
3924;SDS011;1977;52.274;10.518;2023-08-08T07:10:35;4.33;;;4.03;;
3924;SDS011;1977;52.274;10.518;2023-08-08T07:13:02;4.70;;;4.37;;
3924;SDS011;1977;52.274;10.518;2023-08-08T07:15:28;4.10;;;3.80;;
3924;SDS011;1977;52.274;10.518;2023-08-08T07:17:56;5.77;;;4.63;;
3924;SDS011;1977;52.274;10.518;2023-08-08T07:20:22;7.63;;;4.20;;
3924;SDS011;1977;52.274;10.518;2023-08-08T07:22:49;4.07;;;3.77;;
3924;SDS011;1977;52.274;10.518;2023-08-08T07:25:17;4.03;;;3.80;;
3924;SDS011;1977;52.274;10.518;2023-08-08T07:27:44;4.30;;;4.07;;
3924;SDS011;1977;52.274;10.518;2023-08-08T07:30:11;3.60;;;3.40;;
3924;SDS011;1977;52.274;10.518;2023-08-08T07:32:39;4.67;;;4.30;;
3924;SDS011;1977;52.274;10.518;2023-08-08T07:35:06;4.87;;;4.57;;
3924;SDS011;1977;52.274;10.518;2023-08-08T07:37:33;5.37;;;4.87;;
3924;SDS011;1977;52.274;10.518;2023-08-08T07:40:00;4.63;;;4.33;;
3924;SDS011;1977;52.274;10.518;2023-08-08T07:42:30;4.87;;;4.47;;
3924;SDS011;1977;52.274;10.518;2023-08-08T07:44:57;4.43;;;4.13;;
3924;SDS011;1977;52.274;10.518;2023-08-08T07:47:23;4.00;;;3.70;;
3924;SDS011;1977;52.274;10.518;2023-08-08T07:49:50;5.67;;;4.90;;
3924;SDS011;1977;52.274;10.518;2023-08-08T07:52:17;4.70;;;4.40;;
3924;SDS011;1977;52.274;10.518;2023-08-08T07:54:43;4.93;;;4.37;;
3924;SDS011;1977;52.274;10.518;2023-08-08T07:57:10;5.67;;;5.20;;
3924;SDS011;1977;52.274;10.518;2023-08-08T07:59:38;6.73;;;5.23;;
3924;SDS011;1977;52.274;10.518;2023-08-08T08:02:05;5.00;;;4.60;;
3924;SDS011;1977;52.274;10.518;2023-08-08T08:04:32;5.03;;;4.60;;
3924;SDS011;1977;52.274;10.518;2023-08-08T08:06:59;4.80;;;4.50;;
3924;SDS011;1977;52.274;10.518;2023-08-08T08:09:26;4.80;;;4.33;;
3924;SDS011;1977;52.274;10.518;2023-08-08T08:11:53;4.60;;;4.30;;
3924;SDS011;1977;52.274;10.518;2023-08-08T08:14:19;5.07;;;4.57;;
3924;SDS011;1977;52.274;10.518;2023-08-08T08:16:48;4.10;;;3.90;;
3924;SDS011;1977;52.274;10.518;2023-08-08T08:19:15;5.00;;;4.60;;
3924;SDS011;1977;52.274;10.518;2023-08-08T08:21:42;4.87;;;4.23;;
3924;SDS011;1977;52.274;10.518;2023-08-08T08:24:09;4.70;;;4.30;;
3924;SDS011;1977;52.274;10.518;2023-08-08T08:26:36;4.23;;;3.93;;
3924;SDS011;1977;52.274;10.518;2023-08-08T08:29:02;4.40;;;4.10;;
3924;SDS011;1977;52.274;10.518;2023-08-08T08:31:29;4.33;;;4.03;;
3924;SDS011;1977;52.274;10.518;2023-08-08T08:33:57;5.33;;;4.90;;
3924;SDS011;1977;52.274;10.518;2023-08-08T08:36:24;4.50;;;4.17;;
3924;SDS011;1977;52.274;10.518;2023-08-08T08:38:52;5.77;;;3.90;;
3924;SDS011;1977;52.274;10.518;2023-08-08T08:41:18;4.43;;;4.03;;
3924;SDS011;1977;52.274;10.518;2023-08-08T08:43:51;3.80;;;3.47;;
3924;SDS011;1977;52.274;10.518;2023-08-08T08:46:20;3.60;;;3.10;;
3924;SDS011;1977;52.274;10.518;2023-08-08T08:48:48;3.67;;;3.37;;
3924;SDS011;1977;52.274;10.518;2023-08-08T08:51:17;3.50;;;3.20;;
3924;SDS011;1977;52.274;10.518;2023-08-08T08:53:45;3.50;;;3.30;;
3924;SDS011;1977;52.274;10.518;2023-08-08T08:56:13;3.07;;;2.87;;
3924;SDS011;1977;52.274;10.518;2023-08-08T08:58:41;2.90;;;2.70;;
3924;SDS011;1977;52.274;10.518;2023-08-08T09:01:08;2.73;;;2.53;;
3924;SDS011;1977;52.274;10.518;2023-08-08T09:03:36;2.57;;;2.37;;
3924;SDS011;1977;52.274;10.518;2023-08-08T09:06:03;3.90;;;2.87;;
3924;SDS011;1977;52.274;10.518;2023-08-08T09:08:32;3.17;;;2.97;;
3924;SDS011;1977;52.274;10.518;2023-08-08T09:10:59;2.90;;;2.70;;
3924;SDS011;1977;52.274;10.518;2023-08-08T09:13:26;3.67;;;2.50;;
3924;SDS011;1977;52.274;10.518;2023-08-08T09:15:53;2.53;;;2.33;;
3924;SDS011;1977;52.274;10.518;2023-08-08T09:18:22;2.77;;;2.57;;
3924;SDS011;1977;52.274;10.518;2023-08-08T09:20:49;2.23;;;2.13;;
3924;SDS011;1977;52.274;10.518;2023-08-08T09:23:16;2.50;;;2.30;;
3924;SDS011;1977;52.274;10.518;2023-08-08T09:25:44;3.30;;;3.00;;
3924;SDS011;1977;52.274;10.518;2023-08-08T09:28:11;3.00;;;2.80;;
3924;SDS011;1977;52.274;10.518;2023-08-08T09:30:38;3.10;;;2.90;;
3924;SDS011;1977;52.274;10.518;2023-08-08T09:33:06;3.87;;;3.57;;
3924;SDS011;1977;52.274;10.518;2023-08-08T09:35:33;4.07;;;3.73;;
3924;SDS011;1977;52.274;10.518;2023-08-08T09:38:00;2.97;;;2.77;;
3924;SDS011;1977;52.274;10.518;2023-08-08T09:40:27;2.33;;;2.23;;
3924;SDS011;1977;52.274;10.518;2023-08-08T09:42:56;2.60;;;2.50;;
3924;SDS011;1977;52.274;10.518;2023-08-08T09:45:23;2.70;;;2.60;;
3924;SDS011;1977;52.274;10.518;2023-08-08T09:47:51;2.37;;;2.27;;
3924;SDS011;1977;52.274;10.518;2023-08-08T09:50:18;2.90;;;2.70;;
3924;SDS011;1977;52.274;10.518;2023-08-08T09:52:45;3.73;;;3.50;;
3924;SDS011;1977;52.274;10.518;2023-08-08T09:55:13;5.07;;;3.20;;
3924;SDS011;1977;52.274;10.518;2023-08-08T09:57:40;3.40;;;3.20;;
3924;SDS011;1977;52.274;10.518;2023-08-08T10:00:10;3.43;;;3.23;;
3924;SDS011;1977;52.274;10.518;2023-08-08T10:02:41;4.10;;;3.17;;
3924;SDS011;1977;52.274;10.518;2023-08-08T10:05:09;4.47;;;3.63;;
3924;SDS011;1977;52.274;10.518;2023-08-08T10:07:38;3.07;;;2.87;;
3924;SDS011;1977;52.274;10.518;2023-08-08T10:10:06;3.63;;;3.30;;
3924;SDS011;1977;52.274;10.518;2023-08-08T10:12:34;3.70;;;3.43;;
3924;SDS011;1977;52.274;10.518;2023-08-08T10:15:03;4.10;;;3.70;;
3924;SDS011;1977;52.274;10.518;2023-08-08T10:17:35;3.73;;;2.97;;
3924;SDS011;1977;52.274;10.518;2023-08-08T10:20:03;3.10;;;2.90;;
3924;SDS011;1977;52.274;10.518;2023-08-08T10:22:36;4.20;;;2.70;;
3924;SDS011;1977;52.274;10.518;2023-08-08T10:25:07;3.90;;;3.60;;
3924;SDS011;1977;52.274;10.518;2023-08-08T10:27:35;4.07;;;3.77;;
3924;SDS011;1977;52.274;10.518;2023-08-08T10:30:04;6.83;;;4.20;;
3924;SDS011;1977;52.274;10.518;2023-08-08T10:32:39;4.17;;;3.83;;
3924;SDS011;1977;52.274;10.518;2023-08-08T10:35:07;4.17;;;3.80;;
3924;SDS011;1977;52.274;10.518;2023-08-08T10:37:35;5.77;;;4.00;;
3924;SDS011;1977;52.274;10.518;2023-08-08T10:40:03;5.73;;;3.20;;
3924;SDS011;1977;52.274;10.518;2023-08-08T10:42:32;3.10;;;3.00;;
3924;SDS011;1977;52.274;10.518;2023-08-08T10:45:08;3.53;;;3.33;;
3924;SDS011;1977;52.274;10.518;2023-08-08T10:47:36;3.73;;;3.43;;
3924;SDS011;1977;52.274;10.518;2023-08-08T10:50:06;3.87;;;3.57;;
3924;SDS011;1977;52.274;10.518;2023-08-08T10:52:37;4.43;;;3.67;;
3924;SDS011;1977;52.274;10.518;2023-08-08T10:55:18;3.70;;;3.50;;
3924;SDS011;1977;52.274;10.518;2023-08-08T10:57:51;4.27;;;3.87;;
3924;SDS011;1977;52.274;10.518;2023-08-08T11:00:20;3.83;;;3.60;;
3924;SDS011;1977;52.274;10.518;2023-08-08T11:02:51;4.10;;;3.80;;
3924;SDS011;1977;52.274;10.518;2023-08-08T11:05:19;4.20;;;3.80;;
3924;SDS011;1977;52.274;10.518;2023-08-08T11:07:47;4.87;;;4.47;;
3924;SDS011;1977;52.274;10.518;2023-08-08T11:10:14;5.70;;;4.03;;
3924;SDS011;1977;52.274;10.518;2023-08-08T11:12:41;3.80;;;3.60;;
3924;SDS011;1977;52.274;10.518;2023-08-08T11:15:08;3.80;;;3.50;;
3924;SDS011;1977;52.274;10.518;2023-08-08T11:17:35;3.40;;;3.10;;
3924;SDS011;1977;52.274;10.518;2023-08-08T11:20:04;4.00;;;3.70;;
3924;SDS011;1977;52.274;10.518;2023-08-08T11:22:32;5.60;;;4.30;;
3924;SDS011;1977;52.274;10.518;2023-08-08T11:24:58;4.23;;;3.83;;
3924;SDS011;1977;52.274;10.518;2023-08-08T11:27:28;4.57;;;3.53;;
3924;SDS011;1977;52.274;10.518;2023-08-08T11:29:56;5.77;;;4.07;;
3924;SDS011;1977;52.274;10.518;2023-08-08T11:32:22;4.70;;;4.23;;
3924;SDS011;1977;52.274;10.518;2023-08-08T11:34:52;4.47;;;4.10;;
3924;SDS011;1977;52.274;10.518;2023-08-08T11:37:20;8.33;;;4.53;;
3924;SDS011;1977;52.274;10.518;2023-08-08T11:39:48;4.57;;;4.17;;
3924;SDS011;1977;52.274;10.518;2023-08-08T11:42:16;4.83;;;4.43;;
3924;SDS011;1977;52.274;10.518;2023-08-08T11:44:43;4.80;;;4.37;;
3924;SDS011;1977;52.274;10.518;2023-08-08T11:47:10;4.07;;;3.80;;
3924;SDS011;1977;52.274;10.518;2023-08-08T11:49:40;6.00;;;4.43;;
3924;SDS011;1977;52.274;10.518;2023-08-08T11:52:07;4.70;;;4.30;;
3924;SDS011;1977;52.274;10.518;2023-08-08T11:54:37;5.30;;;4.80;;
3924;SDS011;1977;52.274;10.518;2023-08-08T11:57:04;3.67;;;3.43;;
3924;SDS011;1977;52.274;10.518;2023-08-08T11:59:31;3.70;;;3.40;;
3924;SDS011;1977;52.274;10.518;2023-08-08T12:01:58;4.20;;;3.67;;
3924;SDS011;1977;52.274;10.518;2023-08-08T12:04:25;3.57;;;3.30;;
3924;SDS011;1977;52.274;10.518;2023-08-08T12:06:59;3.30;;;3.00;;
3924;SDS011;1977;52.274;10.518;2023-08-08T12:09:28;3.43;;;3.03;;
3924;SDS011;1977;52.274;10.518;2023-08-08T12:12:00;2.80;;;2.70;;
3924;SDS011;1977;52.274;10.518;2023-08-08T12:14:26;2.97;;;2.77;;
3924;SDS011;1977;52.274;10.518;2023-08-08T12:16:53;2.63;;;2.50;;
3924;SDS011;1977;52.274;10.518;2023-08-08T12:19:22;3.40;;;3.10;;
3924;SDS011;1977;52.274;10.518;2023-08-08T12:21:49;2.97;;;2.80;;
3924;SDS011;1977;52.274;10.518;2023-08-08T12:24:17;3.27;;;2.50;;
3924;SDS011;1977;52.274;10.518;2023-08-08T12:26:43;2.90;;;2.17;;
3924;SDS011;1977;52.274;10.518;2023-08-08T12:29:12;2.60;;;2.50;;
3924;SDS011;1977;52.274;10.518;2023-08-08T12:31:39;2.90;;;2.43;;
3924;SDS011;1977;52.274;10.518;2023-08-08T12:34:06;2.20;;;2.10;;
3924;SDS011;1977;52.274;10.518;2023-08-08T12:36:33;3.10;;;2.40;;
3924;SDS011;1977;52.274;10.518;2023-08-08T12:39:00;2.60;;;2.50;;
3924;SDS011;1977;52.274;10.518;2023-08-08T12:41:27;2.60;;;2.40;;
3924;SDS011;1977;52.274;10.518;2023-08-08T12:43:54;2.40;;;2.20;;
3924;SDS011;1977;52.274;10.518;2023-08-08T12:46:23;2.53;;;2.43;;
3924;SDS011;1977;52.274;10.518;2023-08-08T12:48:49;4.57;;;2.83;;
3924;SDS011;1977;52.274;10.518;2023-08-08T12:51:16;6.83;;;2.70;;
3924;SDS011;1977;52.274;10.518;2023-08-08T12:53:43;2.83;;;2.60;;
3924;SDS011;1977;52.274;10.518;2023-08-08T12:56:10;3.17;;;2.20;;
3924;SDS011;1977;52.274;10.518;2023-08-08T12:58:37;3.20;;;2.40;;
3924;SDS011;1977;52.274;10.518;2023-08-08T13:01:05;4.97;;;2.57;;
3924;SDS011;1977;52.274;10.518;2023-08-08T13:03:33;2.40;;;2.23;;
3924;SDS011;1977;52.274;10.518;2023-08-08T13:06:00;2.00;;;1.90;;
3924;SDS011;1977;52.274;10.518;2023-08-08T13:08:27;2.63;;;2.43;;
3924;SDS011;1977;52.274;10.518;2023-08-08T13:10:54;4.07;;;2.77;;
3924;SDS011;1977;52.274;10.518;2023-08-08T13:13:21;1.77;;;1.67;;
3924;SDS011;1977;52.274;10.518;2023-08-08T13:15:50;1.67;;;1.57;;
3924;SDS011;1977;52.274;10.518;2023-08-08T13:18:17;1.80;;;1.70;;
3924;SDS011;1977;52.274;10.518;2023-08-08T13:20:45;2.60;;;1.70;;
3924;SDS011;1977;52.274;10.518;2023-08-08T13:23:12;2.33;;;1.50;;
3924;SDS011;1977;52.274;10.518;2023-08-08T13:25:38;2.07;;;1.50;;
3924;SDS011;1977;52.274;10.518;2023-08-08T13:28:06;2.50;;;1.90;;
3924;SDS011;1977;52.274;10.518;2023-08-08T13:30:33;3.33;;;1.93;;
3924;SDS011;1977;52.274;10.518;2023-08-08T13:33:00;2.00;;;1.90;;
3924;SDS011;1977;52.274;10.518;2023-08-08T13:35:27;2.20;;;2.03;;
3924;SDS011;1977;52.274;10.518;2023-08-08T13:37:56;2.03;;;1.67;;
3924;SDS011;1977;52.274;10.518;2023-08-08T13:40:23;3.10;;;1.60;;
3924;SDS011;1977;52.274;10.518;2023-08-08T13:42:50;5.53;;;1.80;;
3924;SDS011;1977;52.274;10.518;2023-08-08T13:45:16;2.83;;;1.53;;
3924;SDS011;1977;52.274;10.518;2023-08-08T13:47:44;8.83;;;2.43;;
3924;SDS011;1977;52.274;10.518;2023-08-08T13:50:11;1.53;;;1.40;;
3924;SDS011;1977;52.274;10.518;2023-08-08T13:52:39;1.73;;;1.60;;
3924;SDS011;1977;52.274;10.518;2023-08-08T13:55:07;2.63;;;1.63;;
3924;SDS011;1977;52.274;10.518;2023-08-08T13:57:35;1.57;;;1.47;;
3924;SDS011;1977;52.274;10.518;2023-08-08T14:00:02;1.90;;;1.70;;
3924;SDS011;1977;52.274;10.518;2023-08-08T14:02:31;1.70;;;1.60;;
3924;SDS011;1977;52.274;10.518;2023-08-08T14:04:58;1.43;;;1.30;;
3924;SDS011;1977;52.274;10.518;2023-08-08T14:07:25;1.50;;;1.20;;
3924;SDS011;1977;52.274;10.518;2023-08-08T14:09:51;1.20;;;1.10;;
3924;SDS011;1977;52.274;10.518;2023-08-08T14:12:19;1.33;;;1.23;;
3924;SDS011;1977;52.274;10.518;2023-08-08T14:14:46;7.87;;;1.43;;
3924;SDS011;1977;52.274;10.518;2023-08-08T14:17:13;1.40;;;1.30;;
3924;SDS011;1977;52.274;10.518;2023-08-08T14:19:40;1.30;;;1.20;;
3924;SDS011;1977;52.274;10.518;2023-08-08T14:22:06;1.73;;;1.30;;
3924;SDS011;1977;52.274;10.518;2023-08-08T14:24:33;1.40;;;1.30;;
3924;SDS011;1977;52.274;10.518;2023-08-08T14:27:00;3.13;;;1.33;;
3924;SDS011;1977;52.274;10.518;2023-08-08T14:29:28;5.20;;;1.53;;
3924;SDS011;1977;52.274;10.518;2023-08-08T14:31:55;1.40;;;1.30;;
3924;SDS011;1977;52.274;10.518;2023-08-08T14:34:27;1.50;;;1.40;;
3924;SDS011;1977;52.274;10.518;2023-08-08T14:36:55;1.40;;;1.30;;
3924;SDS011;1977;52.274;10.518;2023-08-08T14:39:22;1.50;;;1.10;;
3924;SDS011;1977;52.274;10.518;2023-08-08T14:41:49;1.30;;;1.20;;
3924;SDS011;1977;52.274;10.518;2023-08-08T14:44:16;2.10;;;1.20;;
3924;SDS011;1977;52.274;10.518;2023-08-08T14:46:45;1.30;;;1.20;;
3924;SDS011;1977;52.274;10.518;2023-08-08T14:49:11;1.67;;;1.00;;
3924;SDS011;1977;52.274;10.518;2023-08-08T14:51:38;1.40;;;1.20;;
3924;SDS011;1977;52.274;10.518;2023-08-08T14:54:05;1.40;;;1.30;;
3924;SDS011;1977;52.274;10.518;2023-08-08T14:56:32;1.63;;;1.47;;
3924;SDS011;1977;52.274;10.518;2023-08-08T14:58:58;1.50;;;1.40;;
3924;SDS011;1977;52.274;10.518;2023-08-08T15:01:25;4.03;;;1.40;;